BAW286 KSFO-EGLL
Flight info
| Callsign | BAW286 |
|---|---|
| Flight time | N/A |
| Altitude | 37000 |
| Route | SNTNA2 TIPRE Q126 INSLO DCT DTA DCT CKW DCT FAR DCT 50N088W DCT YGL/N0499F390 DCT 56N070W DCT LAKES DCT IRBIM/M085F390 DCT TOXIT DCT 60N050W 60N040W 60N030W 58N020W DCT SUNOT/N0480F390 DCT KESIX DCT APSOV DCT BELZU DCT DUFFY DCT RINGA DCT IOM DCT KELLY L10 WAL UY53 NUGRA |
| Aircraft | A359/H-SDE2E3GHIJ3J4J5LM1ORWXY/LB1D1 |
Departure
| Time | 2026-05-03 22:14 |
|---|---|
| Airport | San Francisco International Airport (KSFO) |
Arrival
| Time | N/A |
|---|---|
| Airport | London Heathrow Airport (EGLL) |
| Time | Latitude | Longitude | Altitude | Speed | Heading |
|---|---|---|---|---|---|
| 2026-05-03 21:01 | 37.61212 | -122.39061 | 10 ft | 0 kts | 118° |
| 2026-05-03 21:25 | 37.61170 | -122.38963 | 27 ft | 15 kts | 119° |
| 2026-05-03 21:25 | 37.61143 | -122.38895 | 25 ft | 3 kts | 99° |
| 2026-05-03 21:25 | 37.61107 | -122.38852 | 26 ft | 12 kts | 189° |
| 2026-05-03 21:25 | 37.61061 | -122.38868 | 25 ft | 13 kts | 191° |
| 2026-05-03 21:26 | 37.61014 | -122.38846 | 25 ft | 10 kts | 136° |
| 2026-05-03 21:26 | 37.60969 | -122.38761 | 27 ft | 16 kts | 118° |
| 2026-05-03 21:26 | 37.60919 | -122.38642 | 26 ft | 14 kts | 118° |
| 2026-05-03 21:26 | 37.60886 | -122.38563 | 25 ft | 10 kts | 118° |
| 2026-05-03 21:27 | 37.60851 | -122.38511 | 28 ft | 8 kts | 159° |
| 2026-05-03 21:27 | 37.60800 | -122.38565 | 25 ft | 16 kts | 280° |
| 2026-05-03 21:27 | 37.60848 | -122.38685 | 25 ft | 16 kts | 302° |
| 2026-05-03 21:27 | 37.60894 | -122.38786 | 27 ft | 16 kts | 298° |
| 2026-05-03 21:28 | 37.60935 | -122.38876 | 26 ft | 9 kts | 304° |
| 2026-05-03 21:28 | 37.60991 | -122.38914 | 26 ft | 13 kts | 14° |
| 2026-05-03 21:28 | 37.61064 | -122.38870 | 27 ft | 16 kts | 29° |
| 2026-05-03 21:28 | 37.61158 | -122.38803 | 29 ft | 16 kts | 18° |
| 2026-05-03 21:29 | 37.61203 | -122.38841 | 27 ft | 6 kts | 289° |
| 2026-05-03 21:29 | 37.61219 | -122.38888 | 28 ft | 7 kts | 296° |
| 2026-05-03 21:29 | 37.61231 | -122.38918 | 27 ft | 1 kts | 297° |
| 2026-05-03 21:59 | 37.61228 | -122.38910 | 27 ft | 3 kts | 297° |
| 2026-05-03 21:59 | 37.61219 | -122.38888 | 29 ft | 3 kts | 297° |
| 2026-05-03 22:00 | 37.61211 | -122.38867 | 29 ft | 3 kts | 297° |
| 2026-05-03 22:00 | 37.61203 | -122.38847 | 27 ft | 3 kts | 288° |
| 2026-05-03 22:00 | 37.61199 | -122.38823 | 29 ft | 3 kts | 268° |
| 2026-05-03 22:00 | 37.61202 | -122.38799 | 29 ft | 3 kts | 249° |
| 2026-05-03 22:01 | 37.61210 | -122.38777 | 30 ft | 3 kts | 229° |
| 2026-05-03 22:01 | 37.61223 | -122.38762 | 30 ft | 1 kts | 212° |
| 2026-05-03 22:01 | 37.61224 | -122.38762 | 30 ft | 0 kts | 212° |
| 2026-05-03 22:02 | 37.61220 | -122.38764 | 30 ft | 1 kts | 209° |
| 2026-05-03 22:03 | 37.61218 | -122.38765 | 30 ft | 1 kts | 201° |
| 2026-05-03 22:03 | 37.61219 | -122.38765 | 30 ft | 0 kts | 201° |
| 2026-05-03 22:03 | 37.61220 | -122.38764 | 30 ft | 0 kts | 201° |
| 2026-05-03 22:04 | 37.61219 | -122.38765 | 27 ft | 3 kts | 205° |
| 2026-05-03 22:04 | 37.61148 | -122.38817 | 28 ft | 16 kts | 208° |
| 2026-05-03 22:04 | 37.61051 | -122.38876 | 29 ft | 15 kts | 206° |
| 2026-05-03 22:04 | 37.60959 | -122.38899 | 27 ft | 12 kts | 152° |
| 2026-05-03 22:05 | 37.60908 | -122.38817 | 27 ft | 12 kts | 119° |
| 2026-05-03 22:05 | 37.60870 | -122.38727 | 28 ft | 12 kts | 116° |
| 2026-05-03 22:05 | 37.60832 | -122.38633 | 23 ft | 13 kts | 117° |
| 2026-05-03 22:05 | 37.60774 | -122.38526 | 24 ft | 16 kts | 142° |
| 2026-05-03 22:06 | 37.60682 | -122.38477 | 27 ft | 13 kts | 143° |
| 2026-05-03 22:06 | 37.60623 | -122.38399 | 26 ft | 14 kts | 132° |
| 2026-05-03 22:06 | 37.60551 | -122.38293 | 28 ft | 18 kts | 130° |
| 2026-05-03 22:06 | 37.60504 | -122.38138 | 28 ft | 21 kts | 92° |
| 2026-05-03 22:07 | 37.60567 | -122.37968 | 30 ft | 22 kts | 38° |
| 2026-05-03 22:07 | 37.60700 | -122.37867 | 29 ft | 23 kts | 28° |
| 2026-05-03 22:07 | 37.60841 | -122.37776 | 28 ft | 23 kts | 27° |
| 2026-05-03 22:07 | 37.60989 | -122.37676 | 30 ft | 25 kts | 28° |
| 2026-05-03 22:08 | 37.61142 | -122.37573 | 31 ft | 26 kts | 28° |
| 2026-05-03 22:08 | 37.61297 | -122.37469 | 27 ft | 25 kts | 28° |
| 2026-05-03 22:08 | 37.61452 | -122.37366 | 28 ft | 25 kts | 27° |
| 2026-05-03 22:08 | 37.61555 | -122.37214 | 29 ft | 23 kts | 78° |
| 2026-05-03 22:09 | 37.61519 | -122.37036 | 29 ft | 21 kts | 119° |
| 2026-05-03 22:09 | 37.61439 | -122.36888 | 27 ft | 21 kts | 127° |
| 2026-05-03 22:09 | 37.61348 | -122.36732 | 30 ft | 24 kts | 122° |
| 2026-05-03 22:10 | 37.61169 | -122.36312 | 30 ft | 28 kts | 118° |
| 2026-05-03 22:10 | 37.61090 | -122.36123 | 27 ft | 15 kts | 118° |
| 2026-05-03 22:10 | 37.61059 | -122.35997 | 28 ft | 16 kts | 94° |
| 2026-05-03 22:10 | 37.61104 | -122.35901 | 28 ft | 11 kts | 27° |
| 2026-05-03 22:11 | 37.61174 | -122.35885 | 29 ft | 10 kts | 335° |
| 2026-05-03 22:11 | 37.61217 | -122.35956 | 26 ft | 4 kts | 297° |
| 2026-05-03 22:11 | 37.61217 | -122.35957 | 26 ft | 0 kts | 297° |
| 2026-05-03 22:13 | 37.61222 | -122.35968 | 32 ft | 12 kts | 298° |
| 2026-05-03 22:13 | 37.61363 | -122.36301 | 22 ft | 73 kts | 297° |
| 2026-05-03 22:13 | 37.61688 | -122.37075 | 27 ft | 125 kts | 298° |
| 2026-05-03 22:14 | 37.62165 | -122.38232 | 37 ft | 170 kts | 298° |
| 2026-05-03 22:14 | 37.62702 | -122.39594 | 433 ft | 175 kts | 291° |
| 2026-05-03 22:14 | 37.63219 | -122.40993 | 1020 ft | 174 kts | 290° |
| 2026-05-03 22:14 | 37.63778 | -122.42353 | 1459 ft | 185 kts | 308° |
| 2026-05-03 22:15 | 37.64982 | -122.43082 | 1564 ft | 207 kts | 354° |
| 2026-05-03 22:15 | 37.66383 | -122.42533 | 1771 ft | 224 kts | 36° |
| 2026-05-03 22:15 | 37.67259 | -122.40861 | 2035 ft | 238 kts | 76° |
| 2026-05-03 22:15 | 37.67249 | -122.38723 | 2275 ft | 251 kts | 101° |
| 2026-05-03 22:16 | 37.67207 | -122.36489 | 2694 ft | 261 kts | 77° |
| 2026-05-03 22:16 | 37.67767 | -122.34259 | 2969 ft | 271 kts | 71° |
| 2026-05-03 22:16 | 37.68436 | -122.32037 | 2998 ft | 270 kts | 70° |
| 2026-05-03 22:16 | 37.69127 | -122.29839 | 3019 ft | 270 kts | 70° |
| 2026-05-03 22:17 | 37.69822 | -122.27621 | 3110 ft | 270 kts | 70° |
| 2026-05-03 22:17 | 37.70516 | -122.25415 | 3444 ft | 271 kts | 70° |
| 2026-05-03 22:17 | 37.71212 | -122.23202 | 4034 ft | 271 kts | 70° |
| 2026-05-03 22:17 | 37.71944 | -122.21008 | 4684 ft | 271 kts | 68° |
| 2026-05-03 22:18 | 37.72766 | -122.18863 | 5328 ft | 271 kts | 65° |
| 2026-05-03 22:18 | 37.73632 | -122.16789 | 5945 ft | 272 kts | 65° |
| 2026-05-03 22:18 | 37.74551 | -122.14679 | 6474 ft | 274 kts | 65° |
| 2026-05-03 22:18 | 37.75475 | -122.12572 | 7029 ft | 275 kts | 65° |
| 2026-05-03 22:19 | 37.76398 | -122.10433 | 7492 ft | 279 kts | 65° |
| 2026-05-03 22:19 | 37.77315 | -122.08275 | 8037 ft | 280 kts | 65° |
| 2026-05-03 22:19 | 37.78239 | -122.06069 | 8504 ft | 285 kts | 66° |
| 2026-05-03 22:19 | 37.79174 | -122.03837 | 9010 ft | 289 kts | 65° |
| 2026-05-03 22:20 | 37.80121 | -122.01582 | 9504 ft | 292 kts | 66° |
| 2026-05-03 22:20 | 37.81074 | -121.99308 | 10008 ft | 294 kts | 66° |
| 2026-05-03 22:20 | 37.82048 | -121.96981 | 10312 ft | 304 kts | 66° |
| 2026-05-03 22:20 | 37.82713 | -121.95388 | 10463 ft | 312 kts | 66° |
| 2026-05-03 22:21 | 37.83739 | -121.92924 | 10684 ft | 324 kts | 65° |
| 2026-05-03 22:21 | 37.84812 | -121.90345 | 10938 ft | 335 kts | 65° |
| 2026-05-03 22:21 | 37.85919 | -121.87690 | 11155 ft | 346 kts | 65° |
| 2026-05-03 22:21 | 37.87048 | -121.84990 | 11359 ft | 356 kts | 65° |
| 2026-05-03 22:22 | 37.88224 | -121.82174 | 11592 ft | 365 kts | 65° |
| 2026-05-03 22:22 | 37.89446 | -121.79247 | 11796 ft | 375 kts | 65° |
| 2026-05-03 22:22 | 37.90679 | -121.76287 | 12003 ft | 384 kts | 65° |
| 2026-05-03 22:22 | 37.91937 | -121.73265 | 12214 ft | 392 kts | 65° |
| 2026-05-03 22:23 | 37.93214 | -121.70196 | 12543 ft | 397 kts | 65° |
| 2026-05-03 22:23 | 37.94503 | -121.67095 | 12914 ft | 401 kts | 65° |
| 2026-05-03 22:23 | 37.95789 | -121.64002 | 13266 ft | 404 kts | 65° |
| 2026-05-03 22:23 | 37.97117 | -121.60798 | 13643 ft | 407 kts | 65° |
| 2026-05-03 22:24 | 37.98391 | -121.57720 | 13971 ft | 410 kts | 65° |
| 2026-05-03 22:24 | 37.99712 | -121.54526 | 14313 ft | 412 kts | 65° |
| 2026-05-03 22:24 | 38.01049 | -121.51287 | 14689 ft | 413 kts | 65° |
| 2026-05-03 22:24 | 38.02404 | -121.48003 | 15050 ft | 415 kts | 65° |
| 2026-05-03 22:25 | 38.03710 | -121.44834 | 15395 ft | 417 kts | 65° |
| 2026-05-03 22:25 | 38.05076 | -121.41517 | 15753 ft | 419 kts | 65° |
| 2026-05-03 22:25 | 38.06434 | -121.38216 | 16117 ft | 421 kts | 65° |
| 2026-05-03 22:25 | 38.07789 | -121.34916 | 16472 ft | 423 kts | 65° |
| 2026-05-03 22:26 | 38.09149 | -121.31602 | 16811 ft | 426 kts | 65° |
| 2026-05-03 22:26 | 38.10524 | -121.28249 | 17157 ft | 428 kts | 65° |
| 2026-05-03 22:26 | 38.11902 | -121.24881 | 17500 ft | 430 kts | 65° |
| 2026-05-03 22:26 | 38.13286 | -121.21499 | 17843 ft | 432 kts | 65° |
| 2026-05-03 22:27 | 38.14674 | -121.18103 | 18181 ft | 434 kts | 65° |
| 2026-05-03 22:27 | 38.16054 | -121.14724 | 18488 ft | 436 kts | 65° |
| 2026-05-03 22:27 | 38.17470 | -121.11252 | 18798 ft | 437 kts | 65° |
| 2026-05-03 22:27 | 38.18849 | -121.07855 | 19139 ft | 438 kts | 66° |
| 2026-05-03 22:28 | 38.20068 | -121.04323 | 19441 ft | 437 kts | 73° |
| 2026-05-03 22:28 | 38.20939 | -121.00611 | 19768 ft | 435 kts | 79° |
| 2026-05-03 22:28 | 38.21606 | -120.96863 | 20106 ft | 435 kts | 81° |
| 2026-05-03 22:28 | 38.22183 | -120.93076 | 20434 ft | 436 kts | 83° |
| 2026-05-03 22:29 | 38.22713 | -120.89268 | 20738 ft | 437 kts | 83° |
| 2026-05-03 22:29 | 38.23227 | -120.85446 | 21064 ft | 439 kts | 83° |
| 2026-05-03 22:29 | 38.23738 | -120.81658 | 21398 ft | 440 kts | 83° |
| 2026-05-03 22:29 | 38.24269 | -120.77764 | 21727 ft | 441 kts | 83° |
| 2026-05-03 22:30 | 38.24802 | -120.73905 | 22015 ft | 444 kts | 83° |
| 2026-05-03 22:30 | 38.25342 | -120.70034 | 22360 ft | 445 kts | 82° |
| 2026-05-03 22:30 | 38.25878 | -120.66211 | 22692 ft | 446 kts | 82° |
| 2026-05-03 22:30 | 38.26425 | -120.62311 | 23001 ft | 447 kts | 82° |
| 2026-05-03 22:31 | 38.26971 | -120.58399 | 23271 ft | 450 kts | 82° |
| 2026-05-03 22:31 | 38.27521 | -120.54461 | 23555 ft | 452 kts | 82° |
| 2026-05-03 22:31 | 38.28069 | -120.50522 | 23807 ft | 454 kts | 82° |
| 2026-05-03 22:31 | 38.28619 | -120.46550 | 24048 ft | 455 kts | 82° |
| 2026-05-03 22:32 | 38.29169 | -120.42559 | 24263 ft | 458 kts | 82° |
| 2026-05-03 22:32 | 38.29719 | -120.38556 | 24504 ft | 460 kts | 82° |
| 2026-05-03 22:32 | 38.30271 | -120.34534 | 24761 ft | 461 kts | 82° |
| 2026-05-03 22:32 | 38.30823 | -120.30512 | 24996 ft | 463 kts | 82° |
| 2026-05-03 22:33 | 38.31376 | -120.26470 | 25227 ft | 465 kts | 82° |
| 2026-05-03 22:33 | 38.31929 | -120.22417 | 25476 ft | 466 kts | 82° |
| 2026-05-03 22:33 | 38.32486 | -120.18320 | 25712 ft | 468 kts | 82° |
| 2026-05-03 22:33 | 38.33039 | -120.14232 | 25970 ft | 469 kts | 82° |
| 2026-05-03 22:34 | 38.33588 | -120.10177 | 26180 ft | 472 kts | 82° |
| 2026-05-03 22:34 | 38.34145 | -120.06037 | 26423 ft | 474 kts | 82° |
| 2026-05-03 22:34 | 38.34696 | -120.01902 | 26649 ft | 477 kts | 82° |
| 2026-05-03 22:34 | 38.35255 | -119.97743 | 26864 ft | 479 kts | 82° |
| 2026-05-03 22:35 | 38.35822 | -119.93533 | 27039 ft | 483 kts | 82° |
| 2026-05-03 22:35 | 38.36382 | -119.89338 | 27264 ft | 486 kts | 82° |
| 2026-05-03 22:35 | 38.36954 | -119.85034 | 27489 ft | 488 kts | 82° |
| 2026-05-03 22:35 | 38.37511 | -119.80818 | 27646 ft | 491 kts | 82° |
| 2026-05-03 22:36 | 38.38077 | -119.76512 | 27815 ft | 494 kts | 82° |
| 2026-05-03 22:36 | 38.38644 | -119.72186 | 28006 ft | 496 kts | 82° |
| 2026-05-03 22:36 | 38.39213 | -119.67847 | 28198 ft | 498 kts | 82° |
| 2026-05-03 22:36 | 38.39788 | -119.63458 | 28388 ft | 500 kts | 82° |
| 2026-05-03 22:37 | 38.40363 | -119.59070 | 28528 ft | 504 kts | 82° |
| 2026-05-03 22:37 | 38.40939 | -119.54649 | 28690 ft | 506 kts | 82° |
| 2026-05-03 22:37 | 38.41515 | -119.50234 | 28955 ft | 506 kts | 82° |
| 2026-05-03 22:37 | 38.42091 | -119.45789 | 29218 ft | 506 kts | 82° |
| 2026-05-03 22:38 | 38.42663 | -119.41358 | 29469 ft | 507 kts | 82° |
| 2026-05-03 22:38 | 38.43234 | -119.36914 | 29783 ft | 507 kts | 83° |
| 2026-05-03 22:38 | 38.43803 | -119.32469 | 30073 ft | 506 kts | 83° |
| 2026-05-03 22:38 | 38.44366 | -119.28044 | 30277 ft | 506 kts | 83° |
| 2026-05-03 22:39 | 38.44929 | -119.23610 | 30447 ft | 506 kts | 83° |
| 2026-05-03 22:39 | 38.45489 | -119.19193 | 30700 ft | 505 kts | 83° |
| 2026-05-03 22:39 | 38.46050 | -119.14770 | 30958 ft | 504 kts | 83° |
| 2026-05-03 22:39 | 38.46608 | -119.10357 | 31187 ft | 503 kts | 83° |
| 2026-05-03 22:40 | 38.47157 | -119.06000 | 31421 ft | 503 kts | 83° |
| 2026-05-03 22:40 | 38.47709 | -119.01599 | 31671 ft | 503 kts | 83° |
| 2026-05-03 22:40 | 38.48261 | -118.97184 | 31880 ft | 503 kts | 83° |
| 2026-05-03 22:40 | 38.48811 | -118.92771 | 32100 ft | 502 kts | 83° |
| 2026-05-03 22:41 | 38.49365 | -118.88311 | 32290 ft | 503 kts | 83° |
| 2026-05-03 22:41 | 38.49911 | -118.83896 | 32536 ft | 503 kts | 83° |
| 2026-05-03 22:41 | 38.50449 | -118.79543 | 32760 ft | 502 kts | 83° |
| 2026-05-03 22:41 | 38.50992 | -118.75125 | 32977 ft | 502 kts | 83° |
| 2026-05-03 22:42 | 38.51531 | -118.70727 | 33170 ft | 503 kts | 83° |
| 2026-05-03 22:42 | 38.52095 | -118.66331 | 33370 ft | 503 kts | 80° |
| 2026-05-03 22:42 | 38.52991 | -118.62003 | 33550 ft | 505 kts | 72° |
| 2026-05-03 22:42 | 38.54253 | -118.57793 | 33739 ft | 505 kts | 69° |
| 2026-05-03 22:43 | 38.55637 | -118.53671 | 33886 ft | 506 kts | 67° |
| 2026-05-03 22:43 | 38.57096 | -118.49558 | 34031 ft | 507 kts | 66° |
| 2026-05-03 22:43 | 38.58577 | -118.45466 | 34157 ft | 507 kts | 66° |
| 2026-05-03 22:43 | 38.60075 | -118.41327 | 34284 ft | 508 kts | 66° |
| 2026-05-03 22:44 | 38.61538 | -118.37259 | 34388 ft | 509 kts | 66° |
| 2026-05-03 22:44 | 38.63005 | -118.33143 | 34517 ft | 509 kts | 67° |
| 2026-05-03 22:44 | 38.64464 | -118.29017 | 34673 ft | 508 kts | 67° |
| 2026-05-03 22:44 | 38.65917 | -118.24887 | 34802 ft | 508 kts | 67° |
| 2026-05-03 22:45 | 38.67355 | -118.20785 | 34931 ft | 508 kts | 67° |
| 2026-05-03 22:45 | 38.68814 | -118.16617 | 35058 ft | 509 kts | 67° |
| 2026-05-03 22:45 | 38.70259 | -118.12484 | 35185 ft | 509 kts | 67° |
| 2026-05-03 22:45 | 38.71706 | -118.08339 | 35304 ft | 509 kts | 67° |
| 2026-05-03 22:46 | 38.73147 | -118.04206 | 35421 ft | 509 kts | 67° |
| 2026-05-03 22:46 | 38.74575 | -118.00103 | 35555 ft | 509 kts | 67° |
| 2026-05-03 22:46 | 38.76017 | -117.95957 | 35683 ft | 509 kts | 67° |
| 2026-05-03 22:46 | 38.77458 | -117.91810 | 35804 ft | 509 kts | 67° |
| 2026-05-03 22:47 | 38.78867 | -117.87747 | 35911 ft | 509 kts | 67° |
| 2026-05-03 22:47 | 38.80336 | -117.83508 | 36041 ft | 509 kts | 67° |
| 2026-05-03 22:47 | 38.81771 | -117.79357 | 36163 ft | 509 kts | 67° |
| 2026-05-03 22:48 | 38.84634 | -117.71062 | 36349 ft | 509 kts | 67° |
| 2026-05-03 22:48 | 38.86066 | -117.66904 | 36452 ft | 509 kts | 67° |
| 2026-05-03 22:48 | 38.87493 | -117.62754 | 36568 ft | 509 kts | 67° |
| 2026-05-03 22:49 | 38.90347 | -117.54437 | 36743 ft | 510 kts | 67° |
| 2026-05-03 22:49 | 38.93186 | -117.46139 | 36857 ft | 511 kts | 68° |
| 2026-05-03 22:50 | 38.96050 | -117.37744 | 36871 ft | 514 kts | 68° |
| 2026-05-03 22:50 | 38.98927 | -117.29287 | 36856 ft | 516 kts | 67° |
| 2026-05-03 22:51 | 39.01792 | -117.20842 | 36855 ft | 515 kts | 67° |
| 2026-05-03 22:51 | 39.04656 | -117.12375 | 36859 ft | 515 kts | 68° |
| 2026-05-03 22:52 | 39.07490 | -117.03969 | 36852 ft | 515 kts | 67° |
| 2026-05-03 22:52 | 39.10338 | -116.95498 | 36846 ft | 515 kts | 67° |
| 2026-05-03 22:53 | 39.13177 | -116.87027 | 36844 ft | 515 kts | 67° |
| 2026-05-03 22:53 | 39.16012 | -116.78545 | 36841 ft | 515 kts | 67° |
| 2026-05-03 22:54 | 39.18842 | -116.70054 | 36845 ft | 515 kts | 67° |
| 2026-05-03 22:54 | 39.21661 | -116.61570 | 36845 ft | 515 kts | 67° |
| 2026-05-03 22:55 | 39.24470 | -116.53089 | 36838 ft | 514 kts | 67° |
| 2026-05-03 22:55 | 39.27278 | -116.44590 | 36836 ft | 514 kts | 67° |
| 2026-05-03 22:56 | 39.30077 | -116.36085 | 36836 ft | 514 kts | 67° |
| 2026-05-03 22:56 | 39.32865 | -116.27592 | 36827 ft | 514 kts | 68° |
| 2026-05-03 22:57 | 39.35629 | -116.19146 | 36823 ft | 513 kts | 68° |
| 2026-05-03 22:57 | 39.38402 | -116.10648 | 36821 ft | 513 kts | 68° |
| 2026-05-03 22:58 | 39.41169 | -116.02142 | 36815 ft | 513 kts | 68° |
| 2026-05-03 22:58 | 39.43930 | -115.93629 | 36815 ft | 513 kts | 68° |
| 2026-05-03 22:59 | 39.46683 | -115.85118 | 36816 ft | 513 kts | 68° |
| 2026-05-03 22:59 | 39.49433 | -115.76585 | 36819 ft | 513 kts | 68° |
| 2026-05-03 23:00 | 39.51264 | -115.70891 | 36819 ft | 513 kts | 68° |